sensor_id;sensor_type;location;lat;lon;timestamp;temperature;humidity
3334;DHT22;1679;50.392;8.008;2022-10-16T00:01:33;12.70;99.90
3334;DHT22;1679;50.392;8.008;2022-10-16T00:04:00;12.70;99.90
3334;DHT22;1679;50.392;8.008;2022-10-16T00:06:27;12.60;99.90
3334;DHT22;1679;50.392;8.008;2022-10-16T00:08:54;12.60;99.90
3334;DHT22;1679;50.392;8.008;2022-10-16T00:11:22;12.60;99.90
3334;DHT22;1679;50.392;8.008;2022-10-16T00:13:50;12.70;99.90
3334;DHT22;1679;50.392;8.008;2022-10-16T00:16:16;12.80;99.90
3334;DHT22;1679;50.392;8.008;2022-10-16T00:18:43;12.70;99.90
3334;DHT22;1679;50.392;8.008;2022-10-16T00:21:16;12.70;99.90
3334;DHT22;1679;50.392;8.008;2022-10-16T00:23:42;12.70;99.90
3334;DHT22;1679;50.392;8.008;2022-10-16T00:26:11;12.70;99.90
3334;DHT22;1679;50.392;8.008;2022-10-16T00:28:37;12.60;99.90
3334;DHT22;1679;50.392;8.008;2022-10-16T00:31:08;12.60;99.90
3334;DHT22;1679;50.392;8.008;2022-10-16T00:33:35;12.60;99.90
3334;DHT22;1679;50.392;8.008;2022-10-16T00:36:01;12.60;99.90
3334;DHT22;1679;50.392;8.008;2022-10-16T00:38:27;12.60;99.90
3334;DHT22;1679;50.392;8.008;2022-10-16T00:40:53;12.60;99.90
3334;DHT22;1679;50.392;8.008;2022-10-16T00:43:48;12.60;99.90
3334;DHT22;1679;50.392;8.008;2022-10-16T00:49:16;12.60;99.90
3334;DHT22;1679;50.392;8.008;2022-10-16T00:51:47;12.60;99.90
3334;DHT22;1679;50.392;8.008;2022-10-16T00:54:19;12.60;99.90
3334;DHT22;1679;50.392;8.008;2022-10-16T00:56:46;12.60;99.90
3334;DHT22;1679;50.392;8.008;2022-10-16T00:59:18;12.60;99.90
3334;DHT22;1679;50.392;8.008;2022-10-16T01:01:44;12.70;99.90
3334;DHT22;1679;50.392;8.008;2022-10-16T01:04:10;12.80;99.90
3334;DHT22;1679;50.392;8.008;2022-10-16T01:12:49;13.00;99.90
3334;DHT22;1679;50.392;8.008;2022-10-16T01:15:17;13.10;99.90
3334;DHT22;1679;50.392;8.008;2022-10-16T01:20:54;13.10;99.90
3334;DHT22;1679;50.392;8.008;2022-10-16T01:28:34;13.20;99.90
3334;DHT22;1679;50.392;8.008;2022-10-16T01:31:01;13.20;99.90
3334;DHT22;1679;50.392;8.008;2022-10-16T01:33:34;13.30;99.90
3334;DHT22;1679;50.392;8.008;2022-10-16T01:36:06;13.40;99.90
3334;DHT22;1679;50.392;8.008;2022-10-16T01:38:38;13.30;99.90
3334;DHT22;1679;50.392;8.008;2022-10-16T01:41:25;13.30;99.90
3334;DHT22;1679;50.392;8.008;2022-10-16T01:44:08;13.30;99.90
3334;DHT22;1679;50.392;8.008;2022-10-16T01:46:40;13.20;99.90
3334;DHT22;1679;50.392;8.008;2022-10-16T01:49:07;13.30;99.90
3334;DHT22;1679;50.392;8.008;2022-10-16T01:51:35;13.40;99.90
3334;DHT22;1679;50.392;8.008;2022-10-16T01:54:02;13.30;99.90
3334;DHT22;1679;50.392;8.008;2022-10-16T01:56:29;13.30;99.90
3334;DHT22;1679;50.392;8.008;2022-10-16T01:59:02;13.30;99.90
3334;DHT22;1679;50.392;8.008;2022-10-16T02:01:31;13.20;99.90
3334;DHT22;1679;50.392;8.008;2022-10-16T02:04:03;13.20;99.90
3334;DHT22;1679;50.392;8.008;2022-10-16T02:06:29;13.20;99.90
3334;DHT22;1679;50.392;8.008;2022-10-16T02:08:55;13.20;99.90
3334;DHT22;1679;50.392;8.008;2022-10-16T02:11:21;13.30;99.90
3334;DHT22;1679;50.392;8.008;2022-10-16T02:13:54;13.20;99.90
3334;DHT22;1679;50.392;8.008;2022-10-16T02:16:20;13.20;99.90
3334;DHT22;1679;50.392;8.008;2022-10-16T02:18:46;13.30;99.90
3334;DHT22;1679;50.392;8.008;2022-10-16T02:21:26;13.40;99.90
3334;DHT22;1679;50.392;8.008;2022-10-16T02:24:03;13.50;99.90
3334;DHT22;1679;50.392;8.008;2022-10-16T02:29:23;13.50;99.90
3334;DHT22;1679;50.392;8.008;2022-10-16T02:31:52;13.60;99.90
3334;DHT22;1679;50.392;8.008;2022-10-16T02:34:21;13.60;99.90
3334;DHT22;1679;50.392;8.008;2022-10-16T02:36:48;13.60;99.90
3334;DHT22;1679;50.392;8.008;2022-10-16T02:39:16;13.50;99.90
3334;DHT22;1679;50.392;8.008;2022-10-16T02:41:42;13.50;99.90
3334;DHT22;1679;50.392;8.008;2022-10-16T02:44:08;13.60;99.90
3334;DHT22;1679;50.392;8.008;2022-10-16T02:46:33;13.70;99.90
3334;DHT22;1679;50.392;8.008;2022-10-16T02:48:59;13.70;99.90
3334;DHT22;1679;50.392;8.008;2022-10-16T02:51:24;13.80;99.90
3334;DHT22;1679;50.392;8.008;2022-10-16T02:53:50;13.80;99.90
3334;DHT22;1679;50.392;8.008;2022-10-16T02:56:15;13.90;99.90
3334;DHT22;1679;50.392;8.008;2022-10-16T02:58:41;13.90;99.90
3334;DHT22;1679;50.392;8.008;2022-10-16T03:01:06;13.90;99.90
3334;DHT22;1679;50.392;8.008;2022-10-16T03:03:32;13.90;99.90
3334;DHT22;1679;50.392;8.008;2022-10-16T03:05:57;13.90;99.90
3334;DHT22;1679;50.392;8.008;2022-10-16T03:08:23;13.90;99.90
3334;DHT22;1679;50.392;8.008;2022-10-16T03:10:50;13.80;99.90
3334;DHT22;1679;50.392;8.008;2022-10-16T03:13:16;13.70;99.90
3334;DHT22;1679;50.392;8.008;2022-10-16T03:15:41;13.60;99.90
3334;DHT22;1679;50.392;8.008;2022-10-16T03:18:07;13.60;99.90
3334;DHT22;1679;50.392;8.008;2022-10-16T03:20:33;13.70;99.90
3334;DHT22;1679;50.392;8.008;2022-10-16T03:22:58;13.70;99.90
3334;DHT22;1679;50.392;8.008;2022-10-16T03:25:24;13.70;99.90
3334;DHT22;1679;50.392;8.008;2022-10-16T03:27:49;13.70;99.90
3334;DHT22;1679;50.392;8.008;2022-10-16T03:30:15;13.60;99.90
3334;DHT22;1679;50.392;8.008;2022-10-16T03:32:41;13.60;99.90
3334;DHT22;1679;50.392;8.008;2022-10-16T03:35:07;13.60;99.90
3334;DHT22;1679;50.392;8.008;2022-10-16T03:37:33;13.60;99.90
3334;DHT22;1679;50.392;8.008;2022-10-16T03:39:58;13.60;99.90
3334;DHT22;1679;50.392;8.008;2022-10-16T03:42:24;13.50;99.90
3334;DHT22;1679;50.392;8.008;2022-10-16T03:44:50;13.50;99.90
3334;DHT22;1679;50.392;8.008;2022-10-16T03:47:15;13.40;99.90
3334;DHT22;1679;50.392;8.008;2022-10-16T03:49:45;13.40;99.90
3334;DHT22;1679;50.392;8.008;2022-10-16T03:52:11;13.40;99.90
3334;DHT22;1679;50.392;8.008;2022-10-16T03:54:36;13.40;99.90
3334;DHT22;1679;50.392;8.008;2022-10-16T03:57:02;13.50;99.90
3334;DHT22;1679;50.392;8.008;2022-10-16T03:59:27;13.50;99.90
3334;DHT22;1679;50.392;8.008;2022-10-16T04:01:53;13.50;99.90
3334;DHT22;1679;50.392;8.008;2022-10-16T04:04:18;13.40;99.90
3334;DHT22;1679;50.392;8.008;2022-10-16T04:06:44;13.40;99.90
3334;DHT22;1679;50.392;8.008;2022-10-16T04:09:09;13.40;99.90
3334;DHT22;1679;50.392;8.008;2022-10-16T04:11:35;13.40;99.90
3334;DHT22;1679;50.392;8.008;2022-10-16T04:14:00;13.40;99.90
3334;DHT22;1679;50.392;8.008;2022-10-16T04:16:26;13.40;99.90
3334;DHT22;1679;50.392;8.008;2022-10-16T04:18:51;13.40;99.90
3334;DHT22;1679;50.392;8.008;2022-10-16T04:21:17;13.40;99.90
3334;DHT22;1679;50.392;8.008;2022-10-16T04:23:42;13.40;99.90
3334;DHT22;1679;50.392;8.008;2022-10-16T04:26:08;13.40;99.90
3334;DHT22;1679;50.392;8.008;2022-10-16T04:28:35;13.40;99.90
3334;DHT22;1679;50.392;8.008;2022-10-16T04:31:04;13.30;99.90
3334;DHT22;1679;50.392;8.008;2022-10-16T04:33:29;13.40;99.90
3334;DHT22;1679;50.392;8.008;2022-10-16T04:35:58;13.30;99.90
3334;DHT22;1679;50.392;8.008;2022-10-16T04:38:24;13.30;99.90
3334;DHT22;1679;50.392;8.008;2022-10-16T04:40:50;13.30;99.90
3334;DHT22;1679;50.392;8.008;2022-10-16T04:43:16;13.40;99.90
3334;DHT22;1679;50.392;8.008;2022-10-16T04:45:41;13.30;99.90
3334;DHT22;1679;50.392;8.008;2022-10-16T04:48:08;13.30;99.90
3334;DHT22;1679;50.392;8.008;2022-10-16T04:50:34;13.20;99.90
3334;DHT22;1679;50.392;8.008;2022-10-16T04:53:00;13.30;99.90
3334;DHT22;1679;50.392;8.008;2022-10-16T04:55:27;13.30;99.90
3334;DHT22;1679;50.392;8.008;2022-10-16T04:57:54;13.30;99.90
3334;DHT22;1679;50.392;8.008;2022-10-16T05:00:19;13.20;99.90
3334;DHT22;1679;50.392;8.008;2022-10-16T05:02:46;13.20;99.90
3334;DHT22;1679;50.392;8.008;2022-10-16T05:05:11;13.20;99.90
3334;DHT22;1679;50.392;8.008;2022-10-16T05:07:37;13.20;99.90
3334;DHT22;1679;50.392;8.008;2022-10-16T05:10:03;13.20;99.90
3334;DHT22;1679;50.392;8.008;2022-10-16T05:12:30;13.20;99.90
3334;DHT22;1679;50.392;8.008;2022-10-16T05:14:55;13.20;99.90
3334;DHT22;1679;50.392;8.008;2022-10-16T05:17:24;13.20;99.90
3334;DHT22;1679;50.392;8.008;2022-10-16T05:19:50;13.20;99.90
3334;DHT22;1679;50.392;8.008;2022-10-16T05:22:16;13.30;99.90
3334;DHT22;1679;50.392;8.008;2022-10-16T05:24:41;13.30;99.90
3334;DHT22;1679;50.392;8.008;2022-10-16T05:27:07;13.30;99.90
3334;DHT22;1679;50.392;8.008;2022-10-16T05:29:32;13.30;99.90
3334;DHT22;1679;50.392;8.008;2022-10-16T05:31:58;13.20;99.90
3334;DHT22;1679;50.392;8.008;2022-10-16T05:34:23;13.20;99.90
3334;DHT22;1679;50.392;8.008;2022-10-16T05:36:49;13.20;99.90
3334;DHT22;1679;50.392;8.008;2022-10-16T05:39:16;13.30;99.90
3334;DHT22;1679;50.392;8.008;2022-10-16T05:41:42;13.20;99.90
3334;DHT22;1679;50.392;8.008;2022-10-16T05:44:07;13.20;99.90
3334;DHT22;1679;50.392;8.008;2022-10-16T05:46:34;13.20;99.90
3334;DHT22;1679;50.392;8.008;2022-10-16T05:49:00;13.20;99.90
3334;DHT22;1679;50.392;8.008;2022-10-16T05:51:27;13.20;99.90
3334;DHT22;1679;50.392;8.008;2022-10-16T05:53:52;13.20;99.90
3334;DHT22;1679;50.392;8.008;2022-10-16T05:56:18;13.20;99.90
3334;DHT22;1679;50.392;8.008;2022-10-16T05:58:44;13.20;99.90
3334;DHT22;1679;50.392;8.008;2022-10-16T06:01:16;13.20;99.90
3334;DHT22;1679;50.392;8.008;2022-10-16T06:03:42;13.20;99.90
3334;DHT22;1679;50.392;8.008;2022-10-16T06:08:34;13.10;99.90
3334;DHT22;1679;50.392;8.008;2022-10-16T06:11:05;13.10;99.90
3334;DHT22;1679;50.392;8.008;2022-10-16T06:13:31;13.10;99.90
3334;DHT22;1679;50.392;8.008;2022-10-16T06:15:58;13.10;99.90
3334;DHT22;1679;50.392;8.008;2022-10-16T06:18:26;13.10;99.90
3334;DHT22;1679;50.392;8.008;2022-10-16T06:20:52;13.20;99.90
3334;DHT22;1679;50.392;8.008;2022-10-16T06:23:18;13.20;99.90
3334;DHT22;1679;50.392;8.008;2022-10-16T06:25:45;13.20;99.90
3334;DHT22;1679;50.392;8.008;2022-10-16T06:28:15;13.30;99.90
3334;DHT22;1679;50.392;8.008;2022-10-16T06:30:41;13.20;99.90
3334;DHT22;1679;50.392;8.008;2022-10-16T06:33:06;13.30;99.90
3334;DHT22;1679;50.392;8.008;2022-10-16T06:35:31;13.30;99.90
3334;DHT22;1679;50.392;8.008;2022-10-16T06:37:57;13.30;99.90
3334;DHT22;1679;50.392;8.008;2022-10-16T06:40:23;13.30;99.90
3334;DHT22;1679;50.392;8.008;2022-10-16T06:42:50;13.30;99.90
3334;DHT22;1679;50.392;8.008;2022-10-16T06:45:17;13.30;99.90
3334;DHT22;1679;50.392;8.008;2022-10-16T06:47:42;13.30;99.90
3334;DHT22;1679;50.392;8.008;2022-10-16T06:50:08;13.30;99.90
3334;DHT22;1679;50.392;8.008;2022-10-16T06:52:34;13.40;99.90
3334;DHT22;1679;50.392;8.008;2022-10-16T06:55:00;13.40;99.90
3334;DHT22;1679;50.392;8.008;2022-10-16T06:57:26;13.40;99.90
3334;DHT22;1679;50.392;8.008;2022-10-16T06:59:52;13.40;99.90
3334;DHT22;1679;50.392;8.008;2022-10-16T07:02:17;13.50;99.90
3334;DHT22;1679;50.392;8.008;2022-10-16T07:04:43;13.50;99.90
3334;DHT22;1679;50.392;8.008;2022-10-16T07:07:08;13.50;99.90
3334;DHT22;1679;50.392;8.008;2022-10-16T07:09:35;13.50;99.90
3334;DHT22;1679;50.392;8.008;2022-10-16T07:12:02;13.50;99.90
3334;DHT22;1679;50.392;8.008;2022-10-16T07:14:29;13.50;99.90
3334;DHT22;1679;50.392;8.008;2022-10-16T07:16:55;13.50;99.90
3334;DHT22;1679;50.392;8.008;2022-10-16T07:19:21;13.50;99.90
3334;DHT22;1679;50.392;8.008;2022-10-16T07:21:46;13.50;99.90
3334;DHT22;1679;50.392;8.008;2022-10-16T07:24:14;13.50;99.90
3334;DHT22;1679;50.392;8.008;2022-10-16T07:26:43;13.60;99.90
3334;DHT22;1679;50.392;8.008;2022-10-16T07:29:13;13.60;99.90
3334;DHT22;1679;50.392;8.008;2022-10-16T07:31:39;13.60;99.90
3334;DHT22;1679;50.392;8.008;2022-10-16T07:34:05;13.70;99.90
3334;DHT22;1679;50.392;8.008;2022-10-16T07:36:32;13.70;99.90
3334;DHT22;1679;50.392;8.008;2022-10-16T07:38:58;13.70;99.90
3334;DHT22;1679;50.392;8.008;2022-10-16T07:41:23;13.80;99.90
3334;DHT22;1679;50.392;8.008;2022-10-16T07:43:51;13.90;99.90
3334;DHT22;1679;50.392;8.008;2022-10-16T07:46:18;14.00;99.90
3334;DHT22;1679;50.392;8.008;2022-10-16T07:48:44;14.00;99.90
3334;DHT22;1679;50.392;8.008;2022-10-16T07:51:13;14.10;99.90
3334;DHT22;1679;50.392;8.008;2022-10-16T07:53:39;14.10;99.90
3334;DHT22;1679;50.392;8.008;2022-10-16T07:56:06;14.30;99.90
3334;DHT22;1679;50.392;8.008;2022-10-16T07:58:33;14.30;99.90
3334;DHT22;1679;50.392;8.008;2022-10-16T08:01:04;14.40;99.90
3334;DHT22;1679;50.392;8.008;2022-10-16T08:03:31;14.40;99.90
3334;DHT22;1679;50.392;8.008;2022-10-16T08:05:58;14.40;99.90
3334;DHT22;1679;50.392;8.008;2022-10-16T08:08:24;14.50;99.90
3334;DHT22;1679;50.392;8.008;2022-10-16T08:10:51;14.60;99.90
3334;DHT22;1679;50.392;8.008;2022-10-16T08:13:17;14.50;99.90
3334;DHT22;1679;50.392;8.008;2022-10-16T08:15:44;14.60;99.90
3334;DHT22;1679;50.392;8.008;2022-10-16T08:18:11;14.70;99.90
3334;DHT22;1679;50.392;8.008;2022-10-16T08:20:39;14.80;99.90
3334;DHT22;1679;50.392;8.008;2022-10-16T08:23:06;14.90;99.90
3334;DHT22;1679;50.392;8.008;2022-10-16T08:25:36;15.00;99.90
3334;DHT22;1679;50.392;8.008;2022-10-16T08:28:07;15.10;99.90
3334;DHT22;1679;50.392;8.008;2022-10-16T08:30:34;15.10;99.90
3334;DHT22;1679;50.392;8.008;2022-10-16T08:33:01;15.20;99.90
3334;DHT22;1679;50.392;8.008;2022-10-16T08:35:26;15.20;99.90
3334;DHT22;1679;50.392;8.008;2022-10-16T08:37:53;15.30;99.90
3334;DHT22;1679;50.392;8.008;2022-10-16T08:40:25;15.30;99.90
3334;DHT22;1679;50.392;8.008;2022-10-16T08:51:04;15.60;99.90
3334;DHT22;1679;50.392;8.008;2022-10-16T08:53:45;15.30;99.90
3334;DHT22;1679;50.392;8.008;2022-10-16T08:56:11;15.10;99.90
3334;DHT22;1679;50.392;8.008;2022-10-16T08:58:37;15.00;99.90
3334;DHT22;1679;50.392;8.008;2022-10-16T09:01:10;15.10;99.90
3334;DHT22;1679;50.392;8.008;2022-10-16T09:04:00;15.30;99.90
3334;DHT22;1679;50.392;8.008;2022-10-16T09:06:50;15.50;99.90
3334;DHT22;1679;50.392;8.008;2022-10-16T09:12:09;16.20;99.90
3334;DHT22;1679;50.392;8.008;2022-10-16T09:19:51;15.90;99.90
3334;DHT22;1679;50.392;8.008;2022-10-16T09:22:22;15.90;99.90
3334;DHT22;1679;50.392;8.008;2022-10-16T09:24:50;15.90;99.90
3334;DHT22;1679;50.392;8.008;2022-10-16T09:27:17;15.80;99.90
3334;DHT22;1679;50.392;8.008;2022-10-16T09:29:42;15.80;99.90
3334;DHT22;1679;50.392;8.008;2022-10-16T09:32:17;15.80;99.90
3334;DHT22;1679;50.392;8.008;2022-10-16T09:34:53;15.80;99.90
3334;DHT22;1679;50.392;8.008;2022-10-16T09:37:22;15.90;99.90
3334;DHT22;1679;50.392;8.008;2022-10-16T09:39:51;15.90;99.90
3334;DHT22;1679;50.392;8.008;2022-10-16T09:42:19;16.00;99.90
3334;DHT22;1679;50.392;8.008;2022-10-16T09:44:50;16.20;99.90
3334;DHT22;1679;50.392;8.008;2022-10-16T09:47:23;16.40;99.90
3334;DHT22;1679;50.392;8.008;2022-10-16T09:49:53;16.40;99.90
3334;DHT22;1679;50.392;8.008;2022-10-16T09:52:19;16.30;99.90
3334;DHT22;1679;50.392;8.008;2022-10-16T09:54:59;16.30;99.90
3334;DHT22;1679;50.392;8.008;2022-10-16T09:57:25;16.40;99.90
3334;DHT22;1679;50.392;8.008;2022-10-16T09:59:52;16.70;99.90
3334;DHT22;1679;50.392;8.008;2022-10-16T10:02:31;16.60;99.90
3334;DHT22;1679;50.392;8.008;2022-10-16T10:05:00;16.60;99.90
3334;DHT22;1679;50.392;8.008;2022-10-16T10:07:31;16.50;99.90
3334;DHT22;1679;50.392;8.008;2022-10-16T10:09:59;16.60;99.90
3334;DHT22;1679;50.392;8.008;2022-10-16T10:12:30;16.70;99.90
3334;DHT22;1679;50.392;8.008;2022-10-16T10:15:03;16.60;99.90
3334;DHT22;1679;50.392;8.008;2022-10-16T10:17:31;16.70;99.90
3334;DHT22;1679;50.392;8.008;2022-10-16T10:20:18;16.70;99.90
3334;DHT22;1679;50.392;8.008;2022-10-16T10:22:46;16.80;99.90
3334;DHT22;1679;50.392;8.008;2022-10-16T10:30:20;16.80;99.90
3334;DHT22;1679;50.392;8.008;2022-10-16T10:33:08;16.90;99.90
3334;DHT22;1679;50.392;8.008;2022-10-16T10:35:45;17.10;99.90
3334;DHT22;1679;50.392;8.008;2022-10-16T10:38:26;17.30;99.90
3334;DHT22;1679;50.392;8.008;2022-10-16T10:41:16;17.50;99.90
3334;DHT22;1679;50.392;8.008;2022-10-16T10:44:15;17.60;99.90
3334;DHT22;1679;50.392;8.008;2022-10-16T10:46:56;17.70;99.90
3334;DHT22;1679;50.392;8.008;2022-10-16T10:49:53;17.80;99.90
3334;DHT22;1679;50.392;8.008;2022-10-16T10:55:15;18.10;99.90
3334;DHT22;1679;50.392;8.008;2022-10-16T10:58:01;18.30;99.90
3334;DHT22;1679;50.392;8.008;2022-10-16T11:00:57;18.50;99.90
3334;DHT22;1679;50.392;8.008;2022-10-16T11:06:18;18.70;99.90
3334;DHT22;1679;50.392;8.008;2022-10-16T11:08:59;18.70;99.90
3334;DHT22;1679;50.392;8.008;2022-10-16T11:11:32;18.70;99.90
3334;DHT22;1679;50.392;8.008;2022-10-16T11:14:19;18.60;99.90
3334;DHT22;1679;50.392;8.008;2022-10-16T11:19:33;18.70;99.90
3334;DHT22;1679;50.392;8.008;2022-10-16T11:22:21;18.60;99.90
3334;DHT22;1679;50.392;8.008;2022-10-16T11:30:49;18.60;99.90
3334;DHT22;1679;50.392;8.008;2022-10-16T11:33:42;18.70;99.90
3334;DHT22;1679;50.392;8.008;2022-10-16T11:36:36;18.80;99.90
3334;DHT22;1679;50.392;8.008;2022-10-16T11:50:03;19.40;99.90
3334;DHT22;1679;50.392;8.008;2022-10-16T11:52:40;19.40;99.90
3334;DHT22;1679;50.392;8.008;2022-10-16T11:55:24;19.40;99.90
3334;DHT22;1679;50.392;8.008;2022-10-16T11:57:57;19.40;99.90
3334;DHT22;1679;50.392;8.008;2022-10-16T12:00:24;19.30;99.90
3334;DHT22;1679;50.392;8.008;2022-10-16T12:03:12;19.30;99.90
3334;DHT22;1679;50.392;8.008;2022-10-16T12:05:58;19.30;99.90
3334;DHT22;1679;50.392;8.008;2022-10-16T12:08:29;19.30;99.90
3334;DHT22;1679;50.392;8.008;2022-10-16T12:11:19;19.20;99.90
3334;DHT22;1679;50.392;8.008;2022-10-16T12:13:45;19.20;99.90
3334;DHT22;1679;50.392;8.008;2022-10-16T12:18:41;19.30;99.90
3334;DHT22;1679;50.392;8.008;2022-10-16T12:21:08;19.50;99.90
3334;DHT22;1679;50.392;8.008;2022-10-16T12:23:52;19.70;99.90
3334;DHT22;1679;50.392;8.008;2022-10-16T12:26:26;19.70;99.90
3334;DHT22;1679;50.392;8.008;2022-10-16T12:28:52;19.70;99.90
3334;DHT22;1679;50.392;8.008;2022-10-16T12:31:18;19.60;99.90
3334;DHT22;1679;50.392;8.008;2022-10-16T12:34:01;19.70;99.90
3334;DHT22;1679;50.392;8.008;2022-10-16T12:36:30;19.70;99.90
3334;DHT22;1679;50.392;8.008;2022-10-16T12:38:56;19.70;99.90
3334;DHT22;1679;50.392;8.008;2022-10-16T12:41:33;19.70;99.90
3334;DHT22;1679;50.392;8.008;2022-10-16T12:44:00;19.70;99.90
3334;DHT22;1679;50.392;8.008;2022-10-16T12:49:20;19.60;99.90
3334;DHT22;1679;50.392;8.008;2022-10-16T12:51:46;19.30;99.90
3334;DHT22;1679;50.392;8.008;2022-10-16T12:54:16;19.20;99.90
3334;DHT22;1679;50.392;8.008;2022-10-16T12:56:49;19.10;99.90
3334;DHT22;1679;50.392;8.008;2022-10-16T13:10:15;19.10;99.90
3334;DHT22;1679;50.392;8.008;2022-10-16T13:18:22;19.00;99.90
3334;DHT22;1679;50.392;8.008;2022-10-16T13:24:01;19.10;99.90
3334;DHT22;1679;50.392;8.008;2022-10-16T13:29:06;19.30;99.90
3334;DHT22;1679;50.392;8.008;2022-10-16T13:31:32;19.30;99.90
3334;DHT22;1679;50.392;8.008;2022-10-16T13:34:00;19.40;99.90
3334;DHT22;1679;50.392;8.008;2022-10-16T13:36:29;19.40;99.90
3334;DHT22;1679;50.392;8.008;2022-10-16T13:41:36;19.40;99.90
3334;DHT22;1679;50.392;8.008;2022-10-16T13:44:01;19.30;99.90
3334;DHT22;1679;50.392;8.008;2022-10-16T13:46:27;19.20;99.90
3334;DHT22;1679;50.392;8.008;2022-10-16T13:49:10;19.10;99.90
3334;DHT22;1679;50.392;8.008;2022-10-16T13:51:38;19.00;99.90
3334;DHT22;1679;50.392;8.008;2022-10-16T13:54:03;18.90;99.90
3334;DHT22;1679;50.392;8.008;2022-10-16T13:56:30;18.60;99.90
3334;DHT22;1679;50.392;8.008;2022-10-16T13:59:22;18.60;99.90
3334;DHT22;1679;50.392;8.008;2022-10-16T14:01:48;18.40;99.90
3334;DHT22;1679;50.392;8.008;2022-10-16T14:04:15;18.40;99.90
3334;DHT22;1679;50.392;8.008;2022-10-16T14:06:43;18.40;99.90
3334;DHT22;1679;50.392;8.008;2022-10-16T14:09:24;18.40;99.90
3334;DHT22;1679;50.392;8.008;2022-10-16T14:12:08;18.30;99.90
3334;DHT22;1679;50.392;8.008;2022-10-16T14:14:42;18.30;99.90
3334;DHT22;1679;50.392;8.008;2022-10-16T14:17:15;18.30;99.90
3334;DHT22;1679;50.392;8.008;2022-10-16T14:19:46;18.30;99.90
3334;DHT22;1679;50.392;8.008;2022-10-16T14:22:37;18.40;99.90
3334;DHT22;1679;50.392;8.008;2022-10-16T14:27:45;18.50;99.90
3334;DHT22;1679;50.392;8.008;2022-10-16T14:30:22;18.50;99.90
3334;DHT22;1679;50.392;8.008;2022-10-16T14:33:19;18.50;99.90
3334;DHT22;1679;50.392;8.008;2022-10-16T14:35:45;18.60;99.90
3334;DHT22;1679;50.392;8.008;2022-10-16T14:38:20;18.70;99.90
3334;DHT22;1679;50.392;8.008;2022-10-16T14:40:49;18.70;99.90
3334;DHT22;1679;50.392;8.008;2022-10-16T14:43:21;18.70;99.90
3334;DHT22;1679;50.392;8.008;2022-10-16T14:45:52;18.60;99.90
3334;DHT22;1679;50.392;8.008;2022-10-16T14:48:19;18.60;99.90
3334;DHT22;1679;50.392;8.008;2022-10-16T14:50:46;18.50;99.90
3334;DHT22;1679;50.392;8.008;2022-10-16T14:53:12;18.50;99.90
3334;DHT22;1679;50.392;8.008;2022-10-16T14:55:38;18.50;99.90
3334;DHT22;1679;50.392;8.008;2022-10-16T14:58:05;18.50;99.90
3334;DHT22;1679;50.392;8.008;2022-10-16T15:00:31;18.50;99.90
3334;DHT22;1679;50.392;8.008;2022-10-16T15:02:56;18.50;99.90
3334;DHT22;1679;50.392;8.008;2022-10-16T15:05:26;18.40;99.90
3334;DHT22;1679;50.392;8.008;2022-10-16T15:07:53;18.40;99.90
3334;DHT22;1679;50.392;8.008;2022-10-16T15:10:21;18.30;99.90
3334;DHT22;1679;50.392;8.008;2022-10-16T15:12:47;18.30;99.90
3334;DHT22;1679;50.392;8.008;2022-10-16T15:15:36;18.30;99.90
3334;DHT22;1679;50.392;8.008;2022-10-16T15:18:03;18.30;99.90
3334;DHT22;1679;50.392;8.008;2022-10-16T15:20:32;18.30;99.90
3334;DHT22;1679;50.392;8.008;2022-10-16T15:23:00;18.20;99.90
3334;DHT22;1679;50.392;8.008;2022-10-16T15:27:57;18.10;99.90
3334;DHT22;1679;50.392;8.008;2022-10-16T15:30:24;18.10;99.90
3334;DHT22;1679;50.392;8.008;2022-10-16T15:32:49;18.10;99.90
3334;DHT22;1679;50.392;8.008;2022-10-16T15:35:15;18.10;99.90
3334;DHT22;1679;50.392;8.008;2022-10-16T15:37:40;18.00;99.90
3334;DHT22;1679;50.392;8.008;2022-10-16T15:40:06;18.00;99.90
3334;DHT22;1679;50.392;8.008;2022-10-16T15:42:33;17.90;99.90
3334;DHT22;1679;50.392;8.008;2022-10-16T15:44:58;17.90;99.90
3334;DHT22;1679;50.392;8.008;2022-10-16T15:47:24;17.90;99.90
3334;DHT22;1679;50.392;8.008;2022-10-16T15:49:49;17.90;99.90
3334;DHT22;1679;50.392;8.008;2022-10-16T15:52:15;17.90;99.90
3334;DHT22;1679;50.392;8.008;2022-10-16T15:54:43;17.90;99.90
3334;DHT22;1679;50.392;8.008;2022-10-16T15:57:08;17.80;99.90
3334;DHT22;1679;50.392;8.008;2022-10-16T15:59:34;17.70;99.90
3334;DHT22;1679;50.392;8.008;2022-10-16T16:01:59;17.70;99.90
3334;DHT22;1679;50.392;8.008;2022-10-16T16:04:25;17.70;99.90
3334;DHT22;1679;50.392;8.008;2022-10-16T16:06:52;17.70;99.90
3334;DHT22;1679;50.392;8.008;2022-10-16T16:09:17;17.60;99.90
3334;DHT22;1679;50.392;8.008;2022-10-16T16:11:42;17.60;99.90
3334;DHT22;1679;50.392;8.008;2022-10-16T16:14:15;17.50;99.90
3334;DHT22;1679;50.392;8.008;2022-10-16T16:16:41;17.50;99.90
3334;DHT22;1679;50.392;8.008;2022-10-16T16:19:08;17.40;99.90
3334;DHT22;1679;50.392;8.008;2022-10-16T16:21:34;17.40;99.90
3334;DHT22;1679;50.392;8.008;2022-10-16T16:24:00;17.40;99.90
3334;DHT22;1679;50.392;8.008;2022-10-16T16:26:28;17.40;99.90
3334;DHT22;1679;50.392;8.008;2022-10-16T16:28:57;17.40;99.90
3334;DHT22;1679;50.392;8.008;2022-10-16T16:31:27;17.40;99.90
3334;DHT22;1679;50.392;8.008;2022-10-16T16:33:54;17.30;99.90
3334;DHT22;1679;50.392;8.008;2022-10-16T16:36:21;17.20;99.90
3334;DHT22;1679;50.392;8.008;2022-10-16T16:38:46;17.20;99.90
3334;DHT22;1679;50.392;8.008;2022-10-16T16:41:14;17.20;99.90
3334;DHT22;1679;50.392;8.008;2022-10-16T16:43:40;17.20;99.90
3334;DHT22;1679;50.392;8.008;2022-10-16T16:46:06;17.10;99.90
3334;DHT22;1679;50.392;8.008;2022-10-16T16:48:32;17.10;99.90
3334;DHT22;1679;50.392;8.008;2022-10-16T16:51:05;17.10;99.90
3334;DHT22;1679;50.392;8.008;2022-10-16T16:53:35;17.10;99.90
3334;DHT22;1679;50.392;8.008;2022-10-16T16:56:04;17.10;99.90
3334;DHT22;1679;50.392;8.008;2022-10-16T16:58:32;17.10;99.90
3334;DHT22;1679;50.392;8.008;2022-10-16T17:00:57;17.10;99.90
3334;DHT22;1679;50.392;8.008;2022-10-16T17:03:32;17.00;99.90
3334;DHT22;1679;50.392;8.008;2022-10-16T17:06:03;17.00;99.90
3334;DHT22;1679;50.392;8.008;2022-10-16T17:08:30;17.00;99.90
3334;DHT22;1679;50.392;8.008;2022-10-16T17:10:56;17.00;99.90
3334;DHT22;1679;50.392;8.008;2022-10-16T17:13:28;17.00;99.90
3334;DHT22;1679;50.392;8.008;2022-10-16T17:15:54;17.00;99.90
3334;DHT22;1679;50.392;8.008;2022-10-16T17:18:22;16.90;99.90
3334;DHT22;1679;50.392;8.008;2022-10-16T17:20:49;16.90;99.90
3334;DHT22;1679;50.392;8.008;2022-10-16T17:23:16;16.80;99.90
3334;DHT22;1679;50.392;8.008;2022-10-16T17:25:43;16.80;99.90
3334;DHT22;1679;50.392;8.008;2022-10-16T17:28:11;16.70;99.90
3334;DHT22;1679;50.392;8.008;2022-10-16T17:30:41;16.70;99.90
3334;DHT22;1679;50.392;8.008;2022-10-16T17:33:09;16.60;99.90
3334;DHT22;1679;50.392;8.008;2022-10-16T17:35:44;16.60;99.90
3334;DHT22;1679;50.392;8.008;2022-10-16T17:38:10;16.60;99.90
3334;DHT22;1679;50.392;8.008;2022-10-16T17:40:37;16.50;99.90
3334;DHT22;1679;50.392;8.008;2022-10-16T17:43:02;16.50;99.90
3334;DHT22;1679;50.392;8.008;2022-10-16T17:45:29;16.50;99.90
3334;DHT22;1679;50.392;8.008;2022-10-16T17:47:57;16.40;99.90
3334;DHT22;1679;50.392;8.008;2022-10-16T17:50:23;16.30;99.90
3334;DHT22;1679;50.392;8.008;2022-10-16T17:52:48;16.30;99.90
3334;DHT22;1679;50.392;8.008;2022-10-16T17:55:15;16.20;99.90
3334;DHT22;1679;50.392;8.008;2022-10-16T17:57:40;16.20;99.90
3334;DHT22;1679;50.392;8.008;2022-10-16T18:00:06;16.20;99.90